Time;durP1;ratioP1;P1;durP2;ratioP2;P2;SDS_P1;SDS_P2;PMS_P1;PMS_P2;Temp;Humidity;BMP_temperature;BMP_pressure;BME280_temperature;BME280_humidity;BME280_pressure;Samples;Min_cycle;Max_cycle;Signal;HPM_P1;HPM_P2
2022/05/21 00:01:30;;;;;;;41.35;14.50;;;10.10;99.90;;;;;;4904160;29;20040;-82
2022/05/21 00:03:56;;;;;;;23.98;14.60;;;10.10;99.90;;;;;;4903518;29;20051;-80
2022/05/21 00:06:21;;;;;;;33.03;15.63;;;10.00;99.90;;;;;;4902650;29;20040;-81
2022/05/21 00:08:47;;;;;;;52.90;17.05;;;10.10;99.90;;;;;;4903310;29;20199;-81
2022/05/21 00:11:12;;;;;;;30.60;18.35;;;10.10;99.90;;;;;;4903286;29;20622;-81
2022/05/21 00:13:38;;;;;;;37.90;18.10;;;10.20;99.90;;;;;;4903592;29;20422;-81
2022/05/21 00:16:05;;;;;;;36.97;19.27;;;10.20;99.90;;;;;;4918264;29;20510;-81
2022/05/21 00:18:31;;;;;;;41.60;18.52;;;10.30;99.90;;;;;;4903094;29;20043;-81
2022/05/21 00:20:57;;;;;;;36.72;21.17;;;10.30;99.90;;;;;;4902247;29;20044;-81
2022/05/21 00:23:30;;;;;;;44.50;19.65;;;10.40;99.90;;;;;;4904547;29;20036;-81
2022/05/21 00:26:25;;;;;;;61.92;20.98;;;10.40;99.90;;;;;;4903182;29;20048;-82
2022/05/21 00:28:50;;;;;;;47.20;22.35;;;10.40;99.90;;;;;;4901564;29;20575;-82
2022/05/21 00:31:18;;;;;;;49.67;23.30;;;10.50;99.90;;;;;;4903376;29;20044;-81
2022/05/21 00:33:45;;;;;;;45.15;23.10;;;10.50;99.90;;;;;;4904455;29;20040;-81
2022/05/21 00:36:12;;;;;;;63.58;21.40;;;10.50;99.90;;;;;;4904534;29;20039;-80
2022/05/21 00:38:39;;;;;;;60.72;22.90;;;10.50;99.90;;;;;;4917874;29;20506;-81
2022/05/21 00:41:06;;;;;;;59.20;21.52;;;10.50;99.90;;;;;;4904248;29;20058;-81
2022/05/21 00:43:48;;;;;;;48.08;24.02;;;10.50;99.90;;;;;;4903775;29;20526;-81
2022/05/21 00:46:14;;;;;;;42.15;22.48;;;10.50;99.90;;;;;;4904951;29;20070;-82
2022/05/21 00:48:41;;;;;;;45.88;23.92;;;10.40;99.90;;;;;;4934044;29;20467;-81
2022/05/21 00:51:12;;;;;;;42.30;23.58;;;10.40;99.90;;;;;;4902793;29;20062;-81
2022/05/21 00:53:38;;;;;;;41.42;23.42;;;10.40;99.90;;;;;;4902444;29;20032;-81
2022/05/21 00:56:05;;;;;;;47.25;23.27;;;10.40;99.90;;;;;;4902535;29;20036;-81
2022/05/21 01:01:17;;;;;;;48.88;22.45;;;10.40;99.90;;;;;;4933963;29;20071;-81
2022/05/21 01:03:44;;;;;;;45.72;22.73;;;10.40;99.90;;;;;;4902242;29;20547;-82
2022/05/21 01:06:11;;;;;;;42.92;23.63;;;10.40;99.90;;;;;;4919038;29;20092;-81
2022/05/21 01:08:38;;;;;;;45.63;24.67;;;10.40;99.90;;;;;;4902692;29;20084;-82
2022/05/21 01:11:11;;;;;;;66.75;24.55;;;10.50;99.90;;;;;;4933063;29;20048;-81
2022/05/21 01:13:38;;;;;;;;;;;10.60;99.90;;;;;;4918027;29;20444;-81
2022/05/21 01:16:04;;;;;;;48.45;24.55;;;10.60;99.90;;;;;;4915825;29;20362;-81
2022/05/21 01:18:30;;;;;;;59.60;23.90;;;10.70;99.90;;;;;;4916476;29;20037;-81
2022/05/21 01:20:59;;;;;;;76.15;24.83;;;10.80;99.90;;;;;;4901422;29;20090;-81
2022/05/21 01:23:26;;;;;;;58.20;26.83;;;10.80;99.90;;;;;;4900820;29;20040;-81
2022/05/21 01:25:53;;;;;;;52.97;27.08;;;10.90;99.90;;;;;;4900417;29;20040;-81
2022/05/21 01:28:21;;;;;;;55.47;26.80;;;10.90;99.90;;;;;;4915333;29;20071;-81
2022/05/21 01:30:53;;;;;;;47.80;25.95;;;11.00;99.90;;;;;;4899437;29;20044;-82
2022/05/21 01:33:21;;;;;;;47.70;26.95;;;11.00;99.90;;;;;;4900012;29;20039;-81
2022/05/21 01:35:47;;;;;;;50.40;25.65;;;11.00;99.90;;;;;;4931596;29;20048;-81
2022/05/21 01:38:16;;;;;;;56.95;25.98;;;11.10;99.90;;;;;;4899514;29;20403;-81
2022/05/21 01:40:43;;;;;;;58.88;27.55;;;11.10;99.90;;;;;;4900597;29;20051;-81
2022/05/21 01:45:53;;;;;;;54.25;26.25;;;11.20;99.90;;;;;;4931009;29;20107;-80
2022/05/21 01:48:21;;;;;;;51.30;26.90;;;11.20;99.90;;;;;;4930928;29;20122;-81
2022/05/21 01:50:48;;;;;;;52.03;27.55;;;11.20;99.90;;;;;;4931302;29;20494;-81
2022/05/21 01:53:15;;;;;;;53.97;27.88;;;11.20;99.90;;;;;;4931687;29;20056;-80
2022/05/21 01:55:41;;;;;;;48.63;26.52;;;11.30;99.90;;;;;;4915938;29;20047;-81
2022/05/21 01:58:06;;;;;;;48.63;27.85;;;11.30;99.90;;;;;;4899404;29;20087;-82
2022/05/21 02:00:32;;;;;;;57.42;28.23;;;11.30;99.90;;;;;;4915240;29;20033;-82
2022/05/21 02:02:58;;;;;;;49.97;26.33;;;11.30;99.90;;;;;;4900135;29;20051;-82
2022/05/21 02:05:23;;;;;;;51.22;26.48;;;11.30;99.90;;;;;;4900562;29;20419;-81
2022/05/21 02:07:49;;;;;;;52.03;27.75;;;11.30;99.90;;;;;;4900988;29;20051;-81
2022/05/21 02:10:14;;;;;;;47.75;27.70;;;11.40;99.90;;;;;;4899936;29;20055;-82
2022/05/21 02:12:40;;;;;;;58.60;26.30;;;11.40;99.90;;;;;;4899825;29;20040;-81
2022/05/21 02:15:06;;;;;;;57.17;25.60;;;11.40;99.90;;;;;;4916164;29;20411;-81
2022/05/21 02:17:32;;;;;;;52.63;27.58;;;11.40;99.90;;;;;;4899943;29;20051;-81
2022/05/21 02:19:57;;;;;;;53.35;27.50;;;11.40;99.90;;;;;;4900437;29;20036;-81
2022/05/21 02:22:23;;;;;;;56.35;25.23;;;11.40;99.90;;;;;;4899907;29;20426;-81
2022/05/21 02:24:49;;;;;;;52.17;25.80;;;11.40;99.90;;;;;;4915790;29;20054;-82
2022/05/21 02:27:15;;;;;;;56.30;25.30;;;11.50;99.90;;;;;;4918498;29;20043;-80
2022/05/21 02:29:42;;;;;;;51.83;26.00;;;11.50;99.90;;;;;;4934537;29;20574;-81
2022/05/21 02:32:10;;;;;;;46.78;25.85;;;11.50;99.90;;;;;;4934902;29;20040;-81
2022/05/21 02:34:36;;;;;;;62.70;25.88;;;11.50;99.90;;;;;;4903712;29;20036;-80
2022/05/21 02:39:45;;;;;;;47.70;25.63;;;11.60;99.90;;;;;;4934078;29;20048;-81
2022/05/21 02:44:56;;;;;;;50.67;24.00;;;11.60;99.90;;;;;;4937010;29;20103;-81
2022/05/21 02:47:23;;;;;;;54.10;24.83;;;11.60;99.90;;;;;;4904191;29;20039;-81
2022/05/21 02:49:48;;;;;;;42.05;23.45;;;11.70;99.90;;;;;;4919285;29;20451;-80
2022/05/21 02:52:15;;;;;;;40.10;23.25;;;11.70;99.90;;;;;;4904177;29;20048;-81
2022/05/21 02:54:41;;;;;;;44.17;22.65;;;11.60;99.90;;;;;;4904766;29;20044;-81
2022/05/21 02:57:09;;;;;;;43.47;21.70;;;11.70;99.90;;;;;;4903058;29;20036;-81
2022/05/21 02:59:35;;;;;;;39.00;21.20;;;11.70;99.90;;;;;;4919062;29;20128;-80
2022/05/21 03:02:01;;;;;;;41.70;21.42;;;11.70;99.90;;;;;;4902765;29;20127;-80
2022/05/21 03:04:28;;;;;;;38.13;20.70;;;11.70;99.90;;;;;;4902207;29;20136;-79
2022/05/21 03:06:56;;;;;;;46.95;19.17;;;11.70;99.90;;;;;;4902604;29;20062;-80
2022/05/21 03:12:08;;;;;;;33.10;18.08;;;11.70;99.90;;;;;;4934375;29;20052;-81
2022/05/21 03:14:34;;;;;;;28.73;16.98;;;11.80;99.90;;;;;;4935165;29;20076;-80
2022/05/21 03:16:59;;;;;;;31.15;16.77;;;11.80;99.90;;;;;;4902293;29;20091;-80
2022/05/21 03:19:30;;;;;;;31.55;16.45;;;11.70;99.90;;;;;;4903077;29;20050;-80
2022/05/21 03:21:56;;;;;;;25.92;14.65;;;11.80;99.90;;;;;;4903061;29;20055;-80
2022/05/21 03:24:22;;;;;;;23.17;14.20;;;11.80;99.90;;;;;;4902909;29;20082;-80
2022/05/21 03:26:47;;;;;;;24.27;13.75;;;11.80;99.90;;;;;;4918730;29;20079;-80
2022/05/21 03:29:13;;;;;;;25.33;13.85;;;11.80;99.90;;;;;;4901404;29;20130;-81
2022/05/21 03:31:39;;;;;;;22.83;12.18;;;11.80;99.90;;;;;;4901958;29;20407;-80
2022/05/21 03:34:04;;;;;;;21.30;13.02;;;11.80;99.90;;;;;;4917638;29;20040;-80
2022/05/21 03:36:33;;;;;;;20.00;12.32;;;11.80;99.90;;;;;;4938413;23;20486;-79
2022/05/21 03:39:00;;;;;;;22.02;11.35;;;11.80;99.90;;;;;;4939136;29;20040;-79
2022/05/21 03:41:27;;;;;;;24.98;11.65;;;11.80;99.90;;;;;;4941554;29;20048;-80
2022/05/21 03:44:02;;;;;;;19.83;10.80;;;11.90;99.90;;;;;;4941855;29;20057;-79
2022/05/21 03:46:31;;;;;;;19.58;10.15;;;11.90;99.90;;;;;;4926858;29;20138;-79
2022/05/21 03:48:58;;;;;;;18.83;10.30;;;11.80;99.90;;;;;;4926565;29;20103;-79
2022/05/21 03:51:24;;;;;;;18.92;9.88;;;11.90;99.90;;;;;;4926587;29;20054;-79
2022/05/21 03:53:53;;;;;;;15.75;9.00;;;11.90;99.90;;;;;;4930869;29;20035;-79
2022/05/21 03:56:23;;;;;;;21.92;9.93;;;12.00;99.90;;;;;;4932482;29;20044;-80
2022/05/21 03:58:50;;;;;;;16.35;9.55;;;11.90;99.90;;;;;;4932289;29;20031;-80
2022/05/21 04:01:20;;;;;;;26.48;11.98;;;12.00;99.90;;;;;;4926559;29;20510;-80
2022/05/21 04:03:54;;;;;;;21.10;8.88;;;12.00;99.90;;;;;;4920925;29;20043;-81
2022/05/21 04:06:22;;;;;;;13.05;8.07;;;12.00;99.90;;;;;;4920546;29;20805;-80
2022/05/21 04:08:52;;;;;;;12.65;8.18;;;12.00;99.90;;;;;;4905523;29;20043;-80
2022/05/21 04:11:21;;;;;;;19.83;9.88;;;12.00;99.90;;;;;;4920537;29;20036;-80
2022/05/21 04:13:51;;;;;;;14.95;9.18;;;12.10;99.90;;;;;;4921182;29;20374;-80
2022/05/21 04:16:18;;;;;;;19.38;8.48;;;12.10;99.90;;;;;;4919504;29;20040;-80
2022/05/21 04:18:50;;;;;;;18.63;7.32;;;12.10;99.90;;;;;;4919809;29;20050;-80
2022/05/21 04:21:26;;;;;;;14.80;7.22;;;12.00;99.90;;;;;;4919693;29;20046;-80
2022/05/21 04:23:53;;;;;;;15.98;6.68;;;12.20;99.90;;;;;;4919810;29;20055;-80
2022/05/21 04:26:27;;;;;;;14.43;5.32;;;12.20;99.90;;;;;;4919805;29;20549;-80
2022/05/21 04:28:54;;;;;;;14.23;4.57;;;12.20;99.90;;;;;;4918036;29;20051;-80
2022/05/21 04:31:40;;;;;;;12.73;3.95;;;12.20;99.90;;;;;;4920701;29;20050;-80
2022/05/21 04:34:13;;;;;;;11.07;3.97;;;12.20;99.90;;;;;;4919974;29;20091;-79
2022/05/21 04:36:42;;;;;;;8.68;3.63;;;12.20;99.90;;;;;;4919607;29;20051;-80
2022/05/21 04:39:11;;;;;;;9.32;3.45;;;12.20;99.90;;;;;;4919514;29;20043;-80
2022/05/21 04:41:39;;;;;;;9.38;3.38;;;12.30;99.90;;;;;;4904461;29;20485;-81
2022/05/21 04:44:07;;;;;;;12.85;3.65;;;12.30;99.90;;;;;;4919850;29;20090;-80
2022/05/21 04:46:35;;;;;;;8.43;3.15;;;12.20;99.90;;;;;;4936676;29;20491;-80
2022/05/21 04:49:03;;;;;;;12.25;3.20;;;12.20;99.90;;;;;;4935582;29;20079;-80
2022/05/21 04:51:37;;;;;;;11.18;3.67;;;12.20;99.90;;;;;;4919936;29;20044;-80
2022/05/21 04:54:04;;;;;;;8.88;3.65;;;12.20;99.90;;;;;;4918974;29;20046;-80
2022/05/21 04:56:31;;;;;;;9.15;3.30;;;12.20;99.90;;;;;;4919291;29;20047;-80
2022/05/21 04:58:58;;;;;;;7.53;3.25;;;12.20;99.90;;;;;;4918867;29;20044;-80
2022/05/21 05:01:25;;;;;;;8.23;3.10;;;12.30;99.90;;;;;;4919448;29;20047;-81
2022/05/21 05:03:54;;;;;;;12.40;3.35;;;12.20;99.90;;;;;;4918799;29;20043;-79
2022/05/21 05:06:21;;;;;;;7.65;3.00;;;12.20;99.90;;;;;;4934214;29;20044;-80
2022/05/21 05:08:48;;;;;;;8.60;3.30;;;12.30;99.90;;;;;;4918065;29;20054;-79
2022/05/21 05:11:14;;;;;;;12.00;3.70;;;12.40;99.90;;;;;;4918781;29;20054;-80
2022/05/21 05:13:45;;;;;;;7.43;2.70;;;12.40;99.90;;;;;;4904072;29;20054;-80
2022/05/21 05:16:14;;;;;;;9.63;2.90;;;12.40;99.90;;;;;;4902957;29;20086;-80
2022/05/21 05:18:40;;;;;;;10.57;2.80;;;12.50;99.90;;;;;;4918646;29;20050;-79
2022/05/21 05:21:05;;;;;;;10.95;3.00;;;12.50;99.90;;;;;;4918631;29;20424;-79
2022/05/21 05:23:34;;;;;;;8.57;2.67;;;12.50;99.90;;;;;;4934667;29;20047;-80
2022/05/21 05:26:04;;;;;;;8.70;2.80;;;12.60;99.90;;;;;;4918725;29;20035;-80
2022/05/21 05:28:33;;;;;;;10.63;2.55;;;12.70;99.90;;;;;;4918576;29;20043;-80
2022/05/21 05:31:02;;;;;;;8.10;2.22;;;12.70;99.90;;;;;;4918722;29;20036;-79
2022/05/21 05:33:30;;;;;;;7.68;3.15;;;12.80;99.90;;;;;;4918460;29;20489;-81
2022/05/21 05:35:56;;;;;;;8.73;2.92;;;12.90;99.90;;;;;;4917813;29;20044;-79
2022/05/21 05:38:23;;;;;;;6.90;2.30;;;13.00;99.90;;;;;;4918535;29;20082;-81
2022/05/21 05:40:53;;;;;;;10.45;2.70;;;13.10;99.90;;;;;;4918753;29;20494;-79
2022/05/21 05:43:21;;;;;;;10.50;2.63;;;13.20;99.90;;;;;;4918043;29;20516;-81
2022/05/21 05:45:58;;;;;;;5.65;2.45;;;13.30;99.90;;;;;;4918225;29;20042;-80
2022/05/21 05:48:31;;;;;;;9.20;2.40;;;13.30;99.90;;;;;;4918741;29;20402;-80
2022/05/21 05:51:07;;;;;;;8.90;2.90;;;13.40;99.90;;;;;;4918800;29;20035;-80
2022/05/21 05:53:36;;;;;;;10.55;2.65;;;13.50;99.90;;;;;;4918678;29;20036;-80
2022/05/21 05:56:07;;;;;;;6.75;2.33;;;13.60;99.90;;;;;;4922353;29;20036;-79
2022/05/21 06:01:28;;;;;;;9.05;2.17;;;13.80;99.90;;;;;;4942083;29;20055;-79
2022/05/21 06:04:03;;;;;;;11.50;2.53;;;13.80;99.90;;;;;;4929278;29;20055;-78
2022/05/21 06:06:35;;;;;;;5.55;1.88;;;13.80;99.90;;;;;;4928558;29;20048;-79
2022/05/21 06:09:02;;;;;;;6.82;2.28;;;13.70;99.90;;;;;;4928109;29;20126;-79
2022/05/21 06:11:37;;;;;;;7.20;2.35;;;13.70;99.90;;;;;;4927139;29;20044;-79
2022/05/21 06:14:09;;;;;;;;;;;13.70;99.90;;;;;;4928591;29;20050;-80
2022/05/21 06:16:38;;;;;;;7.63;2.35;;;13.70;99.90;;;;;;4943425;29;19919;-78
2022/05/21 06:19:11;;;;;;;6.72;2.20;;;13.80;99.90;;;;;;4928365;29;20040;-79
2022/05/21 06:21:38;;;;;;;6.38;2.70;;;13.80;99.90;;;;;;4926308;29;20131;-79
2022/05/21 06:24:04;;;;;;;5.45;2.45;;;13.80;99.90;;;;;;4925851;29;20070;-79
2022/05/21 06:26:34;;;;;;;6.95;2.80;;;13.90;99.90;;;;;;4936392;29;20055;-79
2022/05/21 06:29:17;;;;;;;6.25;2.65;;;14.00;99.90;;;;;;4925916;29;20036;-79
2022/05/21 06:32:01;;;;;;;5.65;2.17;;;14.10;99.90;;;;;;4927426;29;20533;-79
2022/05/21 06:34:31;;;;;;;6.10;2.45;;;14.10;99.90;;;;;;4925814;29;20052;-79
2022/05/21 06:37:14;;;;;;;9.07;3.20;;;14.10;99.90;;;;;;4924968;29;20035;-78
2022/05/21 06:39:42;;;;;;;6.05;2.38;;;14.30;99.90;;;;;;4924509;29;20035;-79
2022/05/21 06:42:13;;;;;;;7.90;2.08;;;14.30;99.90;;;;;;4941083;29;20036;-79
2022/05/21 06:44:59;;;;;;;8.98;2.50;;;14.30;99.90;;;;;;4924884;29;20571;-79
2022/05/21 06:47:50;;;;;;;8.55;2.47;;;14.50;99.90;;;;;;4940852;29;20447;-80
2022/05/21 06:50:19;;;;;;;5.75;2.20;;;14.50;99.90;;;;;;4925376;29;20052;-79
2022/05/21 06:53:09;;;;;;;5.40;2.40;;;14.60;99.90;;;;;;4940586;29;20043;-80
2022/05/21 06:55:41;;;;;;;9.70;1.90;;;14.60;99.90;;;;;;4925080;29;20040;-79
2022/05/21 06:58:20;;;;;;;8.85;2.25;;;14.80;99.90;;;;;;4925513;29;20280;-79
2022/05/21 07:00:49;;;;;;;7.45;2.20;;;14.80;99.90;;;;;;4924785;29;20621;-78
2022/05/21 07:03:17;;;;;;;8.43;2.20;;;14.90;99.90;;;;;;4925219;29;20044;-79
2022/05/21 07:08:36;;;;;;;7.37;2.20;;;14.80;99.90;;;;;;4930768;29;20048;-79
2022/05/21 07:11:28;;;;;;;6.70;2.40;;;15.00;99.90;;;;;;4925265;29;20291;-79
2022/05/21 07:19:49;;;;;;;8.68;2.08;;;14.90;99.90;;;;;;4932729;29;20126;-78
2022/05/21 07:22:48;;;;;;;6.03;2.35;;;15.10;99.90;;;;;;4938578;29;20052;-78
2022/05/21 07:25:32;;;;;;;5.55;2.33;;;15.20;99.90;;;;;;4940812;29;20052;-79
2022/05/21 07:28:25;;;;;;;8.02;2.40;;;15.10;99.90;;;;;;4926774;29;20501;-80
2022/05/21 07:37:42;;;;;;;7.03;2.40;;;15.20;99.90;;;;;;4919025;29;20419;-79
2022/05/21 07:40:24;;;;;;;8.48;2.40;;;15.40;99.90;;;;;;4922944;29;20054;-79
2022/05/21 07:42:51;;;;;;;7.80;2.08;;;15.50;99.90;;;;;;4924747;29;20115;-79
2022/05/21 07:45:23;;;;;;;6.60;2.35;;;15.60;99.90;;;;;;4924740;29;20051;-79
2022/05/21 07:47:53;;;;;;;5.07;2.00;;;15.80;99.90;;;;;;4923722;29;20102;-79
2022/05/21 07:50:29;;;;;;;6.88;2.28;;;15.90;99.90;;;;;;4923417;29;20071;-79
2022/05/21 07:53:10;;;;;;;8.15;2.30;;;16.10;99.90;;;;;;4923935;29;20051;-79
2022/05/21 07:56:14;;;;;;;5.80;1.83;;;16.50;99.90;;;;;;4925462;29;20328;-79
2022/05/21 07:58:57;;;;;;;5.85;1.67;;;17.20;99.90;;;;;;4937930;29;20469;-79
2022/05/21 08:01:36;;;;;;;6.65;1.50;;;17.90;99.90;;;;;;4925753;29;20051;-79
2022/05/21 08:04:40;;;;;;;6.75;1.50;;;18.00;99.90;;;;;;4924899;29;20463;-80
2022/05/21 08:07:18;;;;;;;8.32;1.75;;;18.00;99.90;;;;;;4885814;29;20057;-79
2022/05/21 08:10:03;;;;;;;6.00;1.50;;;17.40;99.90;;;;;;4886513;29;20036;-79
2022/05/21 08:13:06;;;;;;;7.22;1.67;;;16.90;99.90;;;;;;4886766;29;20044;-79
2022/05/21 08:16:02;;;;;;;;;;;;;;;;;;;;;
2022/05/21 08:18:40;;;;;;;5.70;1.58;;;17.10;99.90;;;;;;4905781;29;20048;-79
2022/05/21 08:21:15;;;;;;;5.30;2.00;;;17.70;99.90;;;;;;4924576;29;20047;-78
2022/05/21 08:30:25;;;;;;;4.22;1.42;;;20.70;99.90;;;;;;4943731;29;20122;-80
2022/05/21 08:33:29;;;;;;;4.13;1.42;;;21.00;99.90;;;;;;4914566;29;20168;-79
2022/05/21 08:36:19;;;;;;;5.82;1.23;;;20.60;99.90;;;;;;4932994;29;20137;-80
2022/05/21 08:38:49;;;;;;;4.85;2.05;;;19.90;99.90;;;;;;4927090;29;20067;-80
2022/05/21 08:42:00;;;;;;;4.72;1.42;;;19.60;99.90;;;;;;4925525;29;20040;-80
2022/05/21 08:45:08;;;;;;;6.93;1.60;;;19.40;99.90;;;;;;4935029;29;20047;-80
2022/05/21 08:47:49;;;;;;;5.15;1.55;;;19.10;99.90;;;;;;4943618;29;20043;-80
2022/05/21 08:54:09;;;;;;;7.35;1.75;;;18.30;99.90;;;;;;4944229;29;20422;-79
2022/05/21 08:57:53;;;;;;;5.20;1.45;;;18.30;99.90;;;;;;4942798;29;20040;-79
2022/05/21 09:01:09;;;;;;;2.67;1.42;;;18.20;99.90;;;;;;4932355;29;20099;-80
2022/05/21 09:04:00;;;;;;;3.10;1.15;;;18.50;99.90;;;;;;4890583;29;20179;-79
2022/05/21 09:07:02;;;;;;;6.13;1.20;;;19.30;99.90;;;;;;4894044;29;20127;-79
2022/05/21 09:13:44;;;;;;;6.18;1.30;;;20.50;99.90;;;;;;4889468;29;20463;-81
2022/05/21 09:20:31;;;;;;;5.78;1.38;;;21.40;99.90;;;;;;4853104;29;20049;-80
2022/05/21 09:23:24;;;;;;;;;;;20.70;99.90;;;;;;4863601;29;20495;-80
2022/05/21 09:27:15;;;;;;;;;;;;;;;;;;;;;
2022/05/21 09:29:50;;;;;;;5.50;1.58;;;19.70;99.90;;;;;;4887169;29;20113;-81
2022/05/21 09:32:42;;;;;;;5.45;1.52;;;19.40;99.90;;;;;;4912072;29;20211;-80
2022/05/21 09:39:39;;;;;;;6.28;1.63;;;19.50;99.90;;;;;;4895379;29;20102;-83
2022/05/21 09:46:33;;;;;;;5.13;1.48;;;20.10;99.90;;;;;;4935557;29;20044;-81
2022/05/21 09:49:55;;;;;;;4.75;1.50;;;20.10;99.90;;;;;;4927397;29;20130;-80
2022/05/21 09:56:47;;;;;;;;;;;;;;;;;;;;;
2022/05/21 10:12:44;;;;;;;4.35;1.67;;;22.30;99.90;;;;;;4942418;29;20138;-81
2022/05/21 10:15:45;;;;;;;;;;;;;;;;;;;;;
2022/05/21 10:19:15;;;;;;;5.55;1.33;;;23.40;99.90;;;;;;4951404;29;20126;-81
2022/05/21 10:25:40;;;;;;;3.67;1.15;;;23.80;99.90;;;;;;4918338;28;20548;-81
2022/05/21 10:28:26;;;;;;;3.95;1.48;;;23.30;99.90;;;;;;4937878;29;20063;-81
2022/05/21 10:31:27;;;;;;;3.65;1.13;;;22.50;99.90;;;;;;4954586;28;20051;-80
2022/05/21 10:34:52;;;;;;;3.03;1.23;;;21.70;99.90;;;;;;4954725;28;20530;-81
2022/05/21 10:37:49;;;;;;;4.38;1.35;;;20.80;99.90;;;;;;4864814;29;20084;-81
2022/05/21 10:40:38;;;;;;;4.57;1.27;;;20.90;99.90;;;;;;4881358;28;20142;-80
2022/05/21 10:43:25;;;;;;;3.80;1.20;;;21.80;99.90;;;;;;4938521;29;20047;-81
2022/05/21 10:46:32;;;;;;;4.72;1.35;;;22.20;99.90;;;;;;4953985;28;20039;-81
2022/05/21 10:49:13;;;;;;;5.53;1.30;;;22.70;99.90;;;;;;4973556;28;20059;-80
2022/05/21 10:52:02;;;;;;;4.95;1.13;;;23.20;99.90;;;;;;4973648;28;20055;-81
2022/05/21 10:54:52;;;;;;;5.47;1.20;;;23.30;99.90;;;;;;4943211;28;20190;-81
2022/05/21 10:57:48;;;;;;;4.75;1.33;;;23.10;99.90;;;;;;4957852;28;20051;-81
2022/05/21 11:01:09;;;;;;;3.22;1.02;;;22.90;99.90;;;;;;4959135;28;20114;-81
2022/05/21 11:04:36;;;;;;;3.03;1.00;;;22.70;99.90;;;;;;4926557;28;20393;-81
2022/05/21 11:07:25;;;;;;;3.58;0.90;;;22.30;99.90;;;;;;4958052;28;20047;-81
2022/05/21 11:10:11;;;;;;;4.65;1.20;;;22.40;99.90;;;;;;4959443;28;20043;-81
2022/05/21 11:12:48;;;;;;;4.10;0.82;;;22.80;99.90;;;;;;4941969;29;20062;-80
2022/05/21 11:15:37;;;;;;;3.05;1.10;;;23.10;99.90;;;;;;4958044;28;20071;-81
2022/05/21 11:18:44;;;;;;;2.10;1.13;;;23.10;99.90;;;;;;4920731;28;20050;-80
2022/05/21 11:21:33;;;;;;;4.45;1.15;;;22.90;99.90;;;;;;4883865;29;20499;-80
2022/05/21 11:24:10;;;;;;;3.55;1.10;;;22.60;99.90;;;;;;4888009;28;20037;-81
2022/05/21 11:27:16;;;;;;;3.72;1.20;;;22.40;99.90;;;;;;4961361;28;20023;-80
2022/05/21 11:30:04;;;;;;;3.45;0.80;;;22.10;99.90;;;;;;4897332;29;20051;-80
2022/05/21 11:38:42;;;;;;;4.40;1.25;;;21.10;99.90;;;;;;4962980;28;20052;-80
2022/05/21 11:41:29;;;;;;;6.03;1.30;;;20.90;99.90;;;;;;4947133;29;20039;-80
2022/05/21 11:47:13;;;;;;;4.07;1.20;;;20.60;99.90;;;;;;4948674;28;20047;-79
2022/05/21 11:49:56;;;;;;;4.93;1.40;;;20.50;99.90;;;;;;4961922;28;20494;-80
2022/05/21 11:52:34;;;;;;;4.95;1.38;;;20.50;99.90;;;;;;4946141;29;20569;-80
2022/05/21 11:55:12;;;;;;;3.92;1.23;;;20.50;99.90;;;;;;4962136;28;20410;-80
2022/05/21 11:58:02;;;;;;;5.93;1.80;;;20.60;99.90;;;;;;4960552;28;20035;-79
2022/05/21 12:00:28;;;;;;;3.58;1.17;;;20.60;99.90;;;;;;4944758;29;20545;-80
2022/05/21 12:02:54;;;;;;;3.75;1.48;;;20.60;99.90;;;;;;4961297;28;20047;-79
2022/05/21 12:05:33;;;;;;;3.58;1.30;;;20.60;99.90;;;;;;4960390;28;20085;-79
2022/05/21 12:08:20;;;;;;;6.28;1.48;;;20.50;99.90;;;;;;4959922;28;20046;-80
2022/05/21 12:11:01;;;;;;;6.85;1.73;;;20.50;99.90;;;;;;4959109;28;20450;-80
2022/05/21 12:13:40;;;;;;;4.05;1.52;;;20.20;99.90;;;;;;4960088;28;20047;-81
2022/05/21 12:16:21;;;;;;;4.50;1.60;;;20.50;99.90;;;;;;4960041;28;20043;-80
2022/05/21 12:18:58;;;;;;;6.95;1.45;;;21.10;99.90;;;;;;4958744;28;20054;-81
2022/05/21 12:21:27;;;;;;;5.93;1.58;;;21.80;99.90;;;;;;4942848;29;20079;-80
2022/05/21 12:23:55;;;;;;;4.68;1.20;;;22.30;99.90;;;;;;4959181;28;20039;-80
2022/05/21 12:26:27;;;;;;;4.63;1.50;;;22.80;99.90;;;;;;4958991;28;20659;-81
2022/05/21 12:28:56;;;;;;;3.70;1.30;;;23.30;99.90;;;;;;4958854;28;20454;-81
2022/05/21 12:31:28;;;;;;;4.10;1.30;;;24.00;99.90;;;;;;4959158;28;20144;-81
2022/05/21 12:34:06;;;;;;;4.63;1.33;;;24.70;99.90;;;;;;4943697;29;20031;-81
2022/05/21 12:36:40;;;;;;;3.95;1.25;;;25.10;99.90;;;;;;4957670;28;20047;-81
2022/05/21 12:39:19;;;;;;;3.17;1.20;;;24.70;99.90;;;;;;4959675;28;20184;-80
2022/05/21 12:41:52;;;;;;;3.92;1.38;;;24.00;99.90;;;;;;4942811;29;20051;-80
2022/05/21 12:44:43;;;;;;;6.20;1.65;;;23.80;99.90;;;;;;4942631;29;20091;-80
2022/05/21 12:47:35;;;;;;;7.78;1.60;;;23.30;99.90;;;;;;4944263;28;20066;-80
2022/05/21 12:50:18;;;;;;;4.70;1.50;;;22.80;99.90;;;;;;4943931;29;20050;-79
2022/05/21 12:52:55;;;;;;;4.10;1.40;;;22.70;99.90;;;;;;4945215;29;20070;-79
2022/05/21 12:55:25;;;;;;;4.75;1.67;;;23.10;99.90;;;;;;4943990;28;20085;-79
2022/05/21 12:57:58;;;;;;;4.88;1.42;;;23.20;99.90;;;;;;4960139;28;20124;-80
2022/05/21 13:00:30;;;;;;;3.17;1.17;;;22.90;99.90;;;;;;4943880;29;20043;-82
2022/05/21 13:03:15;;;;;;;4.70;1.40;;;22.70;99.90;;;;;;4944546;29;20043;-80
2022/05/21 13:05:58;;;;;;;3.60;1.00;;;22.70;99.90;;;;;;4943199;28;20097;-81
2022/05/21 13:08:27;;;;;;;4.57;1.45;;;22.30;99.90;;;;;;4928850;29;20498;-80
2022/05/21 13:11:00;;;;;;;5.45;1.65;;;22.00;99.90;;;;;;4944326;29;20047;-80
2022/05/21 13:13:38;;;;;;;5.07;1.67;;;22.30;99.90;;;;;;4962660;28;20071;-80
2022/05/21 13:16:08;;;;;;;3.80;1.48;;;22.90;99.90;;;;;;4945072;29;20043;-79
2022/05/21 13:18:54;;;;;;;3.35;1.10;;;23.30;99.90;;;;;;4946211;28;20058;-79
2022/05/21 13:21:26;;;;;;;3.90;1.23;;;23.30;99.90;;;;;;4946165;29;20043;-80
2022/05/21 13:24:32;;;;;;;5.68;1.65;;;23.00;99.90;;;;;;4968046;28;20042;-79
2022/05/21 13:27:10;;;;;;;5.25;1.30;;;22.50;99.90;;;;;;4969998;28;20129;-80
2022/05/21 13:29:39;;;;;;;3.97;1.35;;;21.90;99.90;;;;;;4942157;29;20074;-80
2022/05/21 13:32:31;;;;;;;5.05;1.40;;;21.40;99.90;;;;;;4938704;29;20043;-79
2022/05/21 13:35:00;;;;;;;3.50;1.35;;;20.80;99.90;;;;;;4938632;28;20039;-80
2022/05/21 13:37:33;;;;;;;3.85;1.17;;;20.60;99.90;;;;;;4938380;29;20039;-80
2022/05/21 13:40:18;;;;;;;4.43;1.50;;;21.00;99.90;;;;;;4938633;29;20102;-80
2022/05/21 13:42:47;;;;;;;4.63;1.33;;;20.90;99.90;;;;;;4938167;29;20046;-79
2022/05/21 13:45:26;;;;;;;3.03;1.17;;;20.80;99.90;;;;;;4937949;29;20114;-80
2022/05/21 13:48:05;;;;;;;4.63;1.67;;;20.50;99.90;;;;;;4937925;29;20090;-80
2022/05/21 13:50:32;;;;;;;6.20;1.55;;;20.30;99.90;;;;;;4938534;29;20051;-80
2022/05/21 13:53:00;;;;;;;6.97;2.40;;;20.00;99.90;;;;;;4938215;29;20058;-79
2022/05/21 13:58:40;;;;;;;4.93;1.25;;;19.90;99.90;;;;;;5131416;27;20417;-80
2022/05/21 14:01:30;;;;;;;3.08;1.30;;;20.40;99.90;;;;;;5130195;28;20050;-80
2022/05/21 14:04:41;;;;;;;5.55;1.40;;;20.40;99.90;;;;;;5113609;28;20044;-80
2022/05/21 14:07:25;;;;;;;5.38;1.77;;;19.90;99.90;;;;;;5113149;28;20040;-79
2022/05/21 14:10:00;;;;;;;4.50;1.67;;;19.60;99.90;;;;;;5112646;28;20139;-81
2022/05/21 14:12:35;;;;;;;9.35;1.42;;;19.30;99.90;;;;;;5111374;28;20389;-79
2022/05/21 14:15:21;;;;;;;4.18;1.10;;;19.80;99.90;;;;;;5113994;28;20039;-79
2022/05/21 14:18:03;;;;;;;5.78;1.23;;;20.40;99.90;;;;;;5111421;28;20473;-78
2022/05/21 14:20:33;;;;;;;6.75;1.50;;;20.90;99.90;;;;;;5111060;28;20051;-78
2022/05/21 14:23:41;;;;;;;4.07;1.27;;;21.20;99.90;;;;;;5112037;28;20169;-78
2022/05/21 14:26:42;;;;;;;7.88;2.80;;;21.10;99.90;;;;;;5109661;28;20516;-79
2022/05/21 14:29:38;;;;;;;5.32;1.40;;;20.80;99.90;;;;;;5106291;28;20050;-79
2022/05/21 14:32:21;;;;;;;4.05;1.38;;;20.30;99.90;;;;;;5111374;28;20089;-79
2022/05/21 14:35:11;;;;;;;4.60;1.30;;;20.10;99.90;;;;;;5110768;28;20031;-78
2022/05/21 14:37:38;;;;;;;4.15;1.50;;;20.10;99.90;;;;;;5094365;28;20043;-79
2022/05/21 14:40:07;;;;;;;5.35;1.50;;;19.90;99.90;;;;;;5111008;28;20035;-79
2022/05/21 14:42:34;;;;;;;4.15;1.45;;;19.80;99.90;;;;;;5110970;28;20043;-79
2022/05/21 14:45:02;;;;;;;4.53;1.38;;;19.50;99.90;;;;;;5110719;28;20035;-78
2022/05/21 14:47:52;;;;;;;4.53;1.60;;;19.30;99.90;;;;;;5110348;28;20049;-78
2022/05/21 14:53:20;;;;;;;4.22;1.35;;;19.40;99.90;;;;;;5127765;28;20205;-78
2022/05/21 14:55:50;;;;;;;6.85;1.83;;;19.30;99.90;;;;;;5127731;28;20424;-80
2022/05/21 14:58:18;;;;;;;4.60;1.42;;;19.20;99.90;;;;;;5110324;28;20455;-79
2022/05/21 15:00:45;;;;;;;5.40;1.50;;;19.00;99.90;;;;;;5110523;28;20485;-79
2022/05/21 15:03:18;;;;;;;4.90;1.80;;;18.80;99.90;;;;;;5110330;28;20493;-79
2022/05/21 15:05:48;;;;;;;4.25;1.60;;;18.70;99.90;;;;;;5110307;28;20035;-79
2022/05/21 15:08:21;;;;;;;7.07;1.92;;;18.70;99.90;;;;;;5103792;28;20035;-78